createdAt,value
2022-08-05T00:01:27.868Z,6.15
2022-08-05T00:03:57.102Z,6.15
2022-08-05T00:06:32.442Z,6.53
2022-08-05T00:09:00.812Z,6.78
2022-08-05T00:11:34.481Z,7.70
2022-08-05T00:14:02.371Z,7.13
2022-08-05T00:16:52.622Z,7.03
2022-08-05T00:19:21.528Z,5.53
2022-08-05T00:21:48.846Z,6.13
2022-08-05T00:24:18.941Z,7.55
2022-08-05T00:26:51.690Z,6.68
2022-08-05T00:29:18.889Z,6.10
2022-08-05T00:32:10.514Z,6.43
2022-08-05T00:34:54.741Z,6.28
2022-08-05T00:37:23.914Z,5.07
2022-08-05T00:39:58.089Z,6.40
2022-08-05T00:42:36.680Z,6.18
2022-08-05T00:45:04.825Z,5.13
2022-08-05T00:47:56.476Z,6.97
2022-08-05T00:50:21.911Z,7.90
2022-08-05T00:52:52.128Z,7.75
2022-08-05T00:55:20.003Z,6.32
2022-08-05T00:57:55.691Z,7.05
2022-08-05T01:00:29.817Z,5.13
2022-08-05T01:02:56.718Z,5.93
2022-08-05T01:05:23.688Z,6.43
2022-08-05T01:08:30.789Z,8.15
2022-08-05T01:11:02.408Z,6.47
2022-08-05T01:13:58.876Z,6.93
2022-08-05T01:16:33.623Z,6.88
2022-08-05T01:19:06.552Z,6.57
2022-08-05T01:21:37.814Z,6.50
2022-08-05T01:24:13.226Z,7.63
2022-08-05T01:26:59.608Z,6.88
2022-08-05T01:29:31.566Z,7.03
2022-08-05T01:32:03.576Z,8.88
2022-08-05T01:34:30.878Z,9.73
2022-08-05T01:37:18.051Z,8.52
2022-08-05T01:39:54.933Z,8.13
2022-08-05T01:42:26.611Z,11.63
2022-08-05T01:44:55.957Z,12.10
2022-08-05T01:47:24.408Z,12.23
2022-08-05T01:50:08.257Z,13.23
2022-08-05T01:52:42.995Z,13.70
2022-08-05T01:55:12.906Z,11.70
2022-08-05T01:58:18.880Z,13.63
2022-08-05T02:00:29.894Z,10.85
2022-08-05T02:03:04.227Z,11.75
2022-08-05T02:05:34.243Z,9.20
2022-08-05T02:08:02.714Z,11.35
2022-08-05T02:10:32.847Z,12.10
2022-08-05T02:13:16.097Z,10.95
2022-08-05T02:16:06.544Z,10.93
2022-08-05T02:18:42.973Z,12.80
2022-08-05T02:21:15.555Z,12.63
2022-08-05T02:23:43.620Z,13.27
2022-08-05T02:26:13.330Z,13.25
2022-08-05T02:28:45.947Z,17.05
2022-08-05T02:31:16.462Z,16.33
2022-08-05T02:34:03.190Z,14.57
2022-08-05T02:36:31.343Z,21.55
2022-08-05T02:38:58.399Z,18.10
2022-08-05T02:41:28.710Z,19.23
2022-08-05T02:44:11.834Z,17.33
2022-08-05T02:46:53.092Z,19.23
2022-08-05T02:49:35.783Z,18.15
2022-08-05T02:52:04.798Z,17.92
2022-08-05T02:54:35.726Z,18.98
2022-08-05T02:57:05.288Z,23.50
2022-08-05T02:59:50.126Z,24.73
2022-08-05T03:02:19.598Z,37.08
2022-08-05T03:04:53.318Z,46.13
2022-08-05T03:08:00.505Z,42.58
2022-08-05T03:10:07.090Z,39.22
2022-08-05T03:12:34.452Z,49.80
2022-08-05T03:15:01.222Z,59.35
2022-08-05T03:17:28.476Z,68.80
2022-08-05T03:19:55.175Z,40.28
2022-08-05T03:22:32.148Z,40.40
2022-08-05T03:25:11.522Z,33.97
2022-08-05T03:27:59.202Z,48.47
2022-08-05T03:30:33.420Z,24.48
2022-08-05T03:33:01.364Z,28.80
2022-08-05T03:35:29.137Z,23.88
2022-08-05T03:38:00.340Z,20.65
2022-08-05T03:40:32.059Z,33.38
2022-08-05T03:43:15.975Z,20.60
2022-08-05T03:45:57.234Z,22.67
2022-08-05T03:48:24.973Z,22.67
2022-08-05T03:52:36.506Z,33.22
2022-08-05T03:55:53.226Z,28.50
2022-08-05T03:56:58.958Z,29.02
2022-08-05T03:59:46.716Z,25.05
2022-08-05T04:02:17.563Z,27.00
2022-08-05T04:05:02.454Z,33.33
2022-08-05T04:07:29.812Z,31.60
2022-08-05T04:09:59.995Z,23.35
2022-08-05T04:12:30.043Z,33.88
2022-08-05T04:14:59.121Z,34.05
2022-08-05T04:17:25.979Z,47.20
2022-08-05T04:20:20.005Z,26.88
2022-08-05T04:22:47.150Z,36.85
2022-08-05T04:25:15.707Z,24.42
2022-08-05T04:27:43.872Z,40.75
2022-08-05T04:30:24.827Z,36.10
2022-08-05T04:32:53.438Z,47.47
2022-08-05T04:35:20.205Z,27.83
2022-08-05T04:38:00.724Z,28.40
2022-08-05T04:40:29.598Z,21.73
2022-08-05T04:42:56.103Z,41.55
2022-08-05T04:45:48.310Z,34.13
2022-08-05T04:48:18.743Z,33.47
2022-08-05T04:51:01.852Z,23.38
2022-08-05T04:53:38.778Z,38.30
2022-08-05T04:56:33.554Z,22.05
2022-08-05T04:58:58.674Z,40.50
2022-08-05T05:02:05.725Z,27.00
2022-08-05T05:04:12.344Z,34.58
2022-08-05T05:06:44.804Z,39.95
2022-08-05T05:09:14.032Z,40.13
2022-08-05T05:11:52.902Z,27.85
2022-08-05T05:14:31.273Z,43.03
2022-08-05T05:17:01.908Z,29.33
2022-08-05T05:19:36.287Z,30.70
2022-08-05T05:22:24.016Z,26.25
2022-08-05T05:24:58.619Z,36.40
2022-08-05T05:27:45.796Z,31.63
2022-08-05T05:30:15.682Z,38.85
2022-08-05T05:33:00.123Z,40.13
2022-08-05T05:35:29.117Z,35.42
2022-08-05T05:38:02.943Z,44.60
2022-08-05T05:40:30.277Z,41.92
2022-08-05T05:43:02.112Z,35.72
2022-08-05T05:45:29.099Z,36.20
2022-08-05T05:48:06.000Z,39.45
2022-08-05T05:50:34.205Z,48.80
2022-08-05T05:53:02.592Z,49.08
2022-08-05T05:55:51.549Z,62.22
2022-08-05T05:58:30.199Z,48.85
2022-08-05T06:01:13.121Z,52.22
2022-08-05T06:04:01.226Z,67.18
2022-08-05T06:06:34.841Z,39.58
2022-08-05T06:09:03.918Z,67.47
2022-08-05T06:11:31.128Z,48.00
2022-08-05T06:14:00.344Z,51.15
2022-08-05T06:16:36.776Z,57.85
2022-08-05T06:19:05.653Z,61.60
2022-08-05T06:21:37.224Z,45.88
2022-08-05T06:24:12.124Z,43.55
2022-08-05T06:26:51.049Z,45.17
2022-08-05T06:29:42.860Z,54.35
2022-08-05T06:32:06.274Z,58.80
2022-08-05T06:34:48.399Z,36.22
2022-08-05T06:37:55.931Z,65.47
2022-08-05T06:40:07.733Z,55.17
2022-08-05T06:42:34.311Z,52.45
2022-08-05T06:45:05.512Z,50.63
2022-08-05T06:48:44.433Z,44.15
2022-08-05T06:50:21.972Z,77.72
2022-08-05T06:52:58.450Z,45.25
2022-08-05T06:55:25.846Z,83.45
2022-08-05T06:58:03.890Z,93.55
2022-08-05T07:00:41.130Z,65.28
2022-08-05T07:03:09.772Z,109.57
2022-08-05T07:05:37.138Z,92.38
2022-08-05T07:08:04.741Z,93.32
2022-08-05T07:10:32.665Z,122.88
2022-08-05T07:13:18.040Z,85.22
2022-08-05T07:17:57.244Z,112.93
2022-08-05T07:19:09.577Z,125.20
2022-08-05T07:22:00.231Z,112.65
2022-08-05T07:24:23.427Z,87.40
2022-08-05T07:26:55.357Z,77.90
2022-08-05T07:30:22.181Z,76.93
2022-08-05T07:32:12.109Z,62.28
2022-08-05T07:34:42.388Z,51.17
2022-08-05T07:37:11.481Z,45.05
2022-08-05T07:40:26.012Z,42.25
2022-08-05T07:42:31.769Z,44.72
2022-08-05T07:45:00.953Z,41.40
2022-08-05T07:47:27.502Z,50.30
2022-08-05T07:50:09.595Z,49.60
2022-08-05T07:52:42.554Z,39.92
2022-08-05T07:55:43.983Z,38.47
2022-08-05T07:58:03.049Z,38.00
2022-08-05T08:00:29.935Z,37.80
2022-08-05T08:03:14.062Z,42.72
2022-08-05T08:05:47.569Z,40.50
2022-08-05T08:08:16.707Z,25.00
2022-08-05T08:10:48.976Z,31.50
2022-08-05T08:13:15.731Z,27.08
2022-08-05T08:16:50.038Z,25.48
2022-08-05T08:18:35.495Z,21.48
2022-08-05T08:21:09.932Z,23.08
2022-08-05T08:24:01.768Z,20.75
2022-08-05T08:26:30.002Z,28.50
2022-08-05T08:28:59.120Z,28.65
2022-08-05T08:31:29.050Z,24.85
2022-08-05T08:33:59.523Z,23.88
2022-08-05T08:36:38.778Z,18.50
2022-08-05T08:39:15.397Z,22.98
2022-08-05T08:41:51.930Z,21.00
2022-08-05T08:45:19.194Z,26.15
2022-08-05T08:47:47.133Z,17.30
2022-08-05T08:51:03.523Z,18.73
2022-08-05T08:52:53.836Z,18.10
2022-08-05T08:56:03.116Z,18.23
2022-08-05T08:58:10.227Z,20.23
2022-08-05T09:00:41.489Z,13.50
2022-08-05T09:03:09.249Z,20.83
2022-08-05T09:05:38.951Z,16.92
2022-08-05T09:08:27.460Z,17.58
2022-08-05T09:10:57.585Z,14.20
2022-08-05T09:13:25.399Z,12.10
2022-08-05T09:16:02.181Z,12.52
2022-08-05T09:18:31.247Z,10.75
2022-08-05T09:21:00.110Z,8.80
2022-08-05T09:23:37.349Z,10.45
2022-08-05T09:26:20.577Z,15.88
2022-08-05T09:28:48.190Z,12.32
2022-08-05T09:31:43.198Z,14.45
2022-08-05T09:34:06.513Z,12.95
2022-08-05T09:36:54.014Z,13.02
2022-08-05T09:39:41.268Z,9.32
2022-08-05T09:42:13.529Z,10.70
2022-08-05T09:44:49.464Z,15.15
2022-08-05T09:47:21.538Z,10.60
2022-08-05T09:50:00.681Z,14.57
2022-08-05T09:52:36.503Z,11.13
2022-08-05T09:55:57.458Z,13.02
2022-08-05T09:58:09.988Z,15.32
2022-08-05T10:00:38.235Z,12.85
2022-08-05T10:03:11.161Z,16.60
2022-08-05T10:05:38.483Z,10.18
2022-08-05T10:08:34.999Z,14.48
2022-08-05T10:10:54.576Z,14.52
2022-08-05T10:13:43.953Z,12.95
2022-08-05T10:16:34.319Z,10.68
2022-08-05T10:19:09.103Z,12.35
2022-08-05T10:21:40.492Z,12.80
2022-08-05T10:24:11.094Z,11.65
2022-08-05T10:26:51.732Z,9.90
2022-08-05T10:29:24.199Z,8.63
2022-08-05T10:32:53.401Z,9.90
2022-08-05T10:35:00.916Z,8.23
2022-08-05T10:37:40.498Z,6.60
2022-08-05T10:40:19.445Z,7.30
2022-08-05T10:42:50.210Z,8.80
2022-08-05T10:45:23.395Z,7.18
2022-08-05T10:48:30.613Z,7.03
2022-08-05T10:51:04.156Z,4.97
2022-08-05T10:53:42.604Z,5.88
2022-08-05T10:56:25.057Z,5.93
2022-08-05T10:58:55.512Z,4.30
2022-08-05T11:01:55.303Z,4.28
2022-08-05T11:04:22.875Z,5.15
2022-08-05T11:07:04.435Z,3.78
2022-08-05T11:09:46.661Z,5.18
2022-08-05T11:12:32.710Z,3.17
2022-08-05T11:15:19.857Z,3.42
2022-08-05T11:17:59.953Z,4.40
2022-08-05T11:20:31.477Z,3.78
2022-08-05T11:23:06.026Z,2.75
2022-08-05T11:26:05.626Z,3.85
2022-08-05T11:28:30.630Z,4.85
2022-08-05T11:31:02.459Z,5.18
2022-08-05T11:33:46.471Z,5.80
2022-08-05T11:36:16.385Z,5.70
2022-08-05T11:39:01.459Z,4.18
2022-08-05T11:41:56.377Z,4.55
2022-08-05T11:44:40.463Z,3.97
2022-08-05T11:47:14.130Z,3.20
2022-08-05T11:49:51.029Z,3.67
2022-08-05T11:52:29.229Z,5.35
2022-08-05T11:54:57.500Z,5.07
2022-08-05T11:57:29.404Z,4.53
2022-08-05T11:59:57.884Z,3.60
2022-08-05T12:02:31.646Z,2.80
2022-08-05T12:05:06.871Z,3.40
2022-08-05T12:08:08.837Z,3.17
2022-08-05T12:10:38.561Z,4.20
2022-08-05T12:13:16.830Z,4.93
2022-08-05T12:15:44.937Z,5.47
2022-08-05T12:18:12.348Z,4.15
2022-08-05T12:20:39.386Z,3.80
2022-08-05T12:23:10.779Z,3.67
2022-08-05T12:25:56.750Z,4.53
2022-08-05T12:28:31.992Z,4.95
2022-08-05T12:31:02.043Z,5.60
2022-08-05T12:33:38.639Z,7.82
2022-08-05T12:36:07.886Z,7.63
2022-08-05T12:38:36.283Z,7.65
2022-08-05T12:41:03.634Z,6.72
2022-08-05T12:43:32.021Z,8.32
2022-08-05T12:45:58.933Z,5.25
2022-08-05T12:48:32.167Z,6.55
2022-08-05T12:52:11.051Z,6.50
2022-08-05T12:54:05.080Z,6.90
2022-08-05T12:56:46.845Z,5.10
2022-08-05T12:59:27.612Z,5.05
2022-08-05T13:02:09.893Z,4.70
2022-08-05T13:04:41.606Z,6.05
2022-08-05T13:07:16.130Z,7.28
2022-08-05T13:09:54.498Z,7.65
2022-08-05T13:12:29.624Z,6.35
2022-08-05T13:14:59.168Z,5.53
2022-08-05T13:17:41.217Z,5.10
2022-08-05T13:20:20.394Z,6.18
2022-08-05T13:22:51.697Z,4.45
2022-08-05T13:25:22.026Z,5.05
2022-08-05T13:28:06.893Z,5.13
2022-08-05T13:30:39.252Z,3.70
2022-08-05T13:33:08.309Z,3.95
2022-08-05T13:35:47.034Z,3.88
2022-08-05T13:38:28.097Z,2.28
2022-08-05T13:40:58.488Z,1.85
2022-08-05T13:43:44.467Z,2.13
2022-08-05T13:46:12.075Z,1.90
2022-08-05T13:48:57.635Z,1.88
2022-08-05T13:51:27.726Z,1.67
2022-08-05T13:53:57.941Z,1.90
2022-08-05T13:56:24.995Z,1.88
2022-08-05T13:58:53.279Z,1.77
2022-08-05T14:01:25.949Z,1.88
2022-08-05T14:04:21.758Z,2.10
2022-08-05T14:06:58.610Z,1.30
2022-08-05T14:09:46.043Z,1.52
2022-08-05T14:12:17.661Z,1.52
2022-08-05T14:14:47.785Z,1.60
2022-08-05T14:17:19.779Z,2.03
2022-08-05T14:19:55.955Z,1.90
2022-08-05T14:22:26.566Z,1.65
2022-08-05T14:24:57.193Z,1.90
2022-08-05T14:27:24.069Z,1.77
2022-08-05T14:29:55.126Z,2.00
2022-08-05T14:32:26.812Z,2.33
2022-08-05T14:34:57.019Z,2.35
2022-08-05T14:37:44.847Z,2.00
2022-08-05T14:40:16.853Z,1.50
2022-08-05T14:42:44.234Z,2.10
2022-08-05T14:45:10.959Z,1.70
2022-08-05T14:48:02.659Z,1.58
2022-08-05T14:50:25.911Z,1.83
2022-08-05T14:52:58.458Z,1.60
2022-08-05T14:55:28.755Z,1.20
2022-08-05T14:58:11.213Z,1.65
2022-08-05T15:00:39.462Z,1.30
2022-08-05T15:03:26.303Z,1.65
2022-08-05T15:06:12.784Z,1.73
2022-08-05T15:09:01.108Z,1.50
2022-08-05T15:11:53.105Z,1.40
2022-08-05T15:14:20.262Z,1.90
2022-08-05T15:17:00.856Z,1.70
2022-08-05T15:19:28.030Z,1.33
2022-08-05T15:21:59.984Z,1.33
2022-08-05T15:24:27.405Z,1.20
2022-08-05T15:26:55.951Z,1.20
2022-08-05T15:29:29.846Z,1.40
2022-08-05T15:31:57.314Z,1.30
2022-08-05T15:34:33.197Z,1.20
2022-08-05T15:37:06.960Z,1.20
2022-08-05T15:40:58.699Z,1.00
2022-08-05T15:42:54.306Z,0.93
2022-08-05T15:45:18.748Z,1.00
2022-08-05T15:47:54.407Z,0.88
2022-08-05T15:50:25.191Z,0.90
2022-08-05T15:52:55.304Z,0.90
2022-08-05T15:55:24.912Z,0.90
2022-08-05T15:58:16.703Z,1.00
2022-08-05T16:00:57.092Z,1.20
2022-08-05T16:03:32.669Z,0.80
2022-08-05T16:06:00.537Z,0.88
2022-08-05T16:08:30.615Z,0.70
2022-08-05T16:10:57.719Z,0.93
2022-08-05T16:13:24.259Z,0.73
2022-08-05T16:16:01.120Z,0.50
2022-08-05T16:18:28.945Z,0.90
2022-08-05T16:20:55.890Z,0.60
2022-08-05T16:23:23.039Z,0.60
2022-08-05T16:25:55.765Z,0.80
2022-08-05T16:28:24.161Z,0.70
2022-08-05T16:30:52.102Z,0.85
2022-08-05T16:33:19.521Z,0.90
2022-08-05T16:35:49.895Z,0.68
2022-08-05T16:38:25.560Z,0.75
2022-08-05T16:41:00.445Z,0.80
2022-08-05T16:43:29.913Z,0.82
2022-08-05T16:46:03.733Z,0.68
2022-08-05T16:48:35.931Z,0.70
2022-08-05T16:51:08.725Z,0.70
2022-08-05T16:54:03.437Z,0.70
2022-08-05T16:56:24.805Z,0.80
2022-08-05T16:58:51.453Z,0.90
2022-08-05T17:01:18.732Z,0.50
2022-08-05T17:03:48.985Z,0.60
2022-08-05T17:06:16.896Z,0.70
2022-08-05T17:08:52.854Z,0.90
2022-08-05T17:11:25.606Z,0.90
2022-08-05T17:14:00.182Z,0.70
2022-08-05T17:16:35.983Z,0.82
2022-08-05T17:19:07.845Z,0.90
2022-08-05T17:21:37.243Z,1.05
2022-08-05T17:24:28.357Z,0.90
2022-08-05T17:26:56.536Z,0.77
2022-08-05T17:29:33.749Z,0.80
2022-08-05T17:32:11.316Z,0.88
2022-08-05T17:34:39.494Z,0.70
2022-08-05T17:37:29.407Z,0.80
2022-08-05T17:39:55.944Z,0.70
2022-08-05T17:42:30.161Z,1.00
2022-08-05T17:45:17.746Z,0.63
2022-08-05T17:47:51.543Z,0.80
2022-08-05T17:50:28.178Z,0.65
2022-08-05T17:52:57.017Z,0.90
2022-08-05T17:55:27.215Z,0.60
2022-08-05T17:57:55.052Z,0.88
2022-08-05T18:00:28.579Z,0.73
2022-08-05T18:02:56.142Z,0.52
2022-08-05T18:05:28.134Z,0.77
2022-08-05T18:08:01.939Z,0.90
2022-08-05T18:10:29.878Z,0.70
2022-08-05T18:13:12.398Z,0.70
2022-08-05T18:15:39.624Z,0.77
2022-08-05T18:18:11.351Z,0.90
2022-08-05T18:20:41.990Z,0.60
2022-08-05T18:23:13.464Z,0.77
2022-08-05T18:25:44.934Z,1.10
2022-08-05T18:28:12.417Z,0.73
2022-08-05T18:30:50.767Z,0.70
2022-08-05T18:33:23.085Z,1.02
2022-08-05T18:36:03.669Z,0.52
2022-08-05T18:38:36.893Z,0.90
2022-08-05T18:41:58.226Z,0.80
2022-08-05T18:43:51.248Z,0.80
2022-08-05T18:46:20.179Z,1.00
2022-08-05T18:48:52.035Z,0.98
2022-08-05T18:52:06.204Z,0.95
2022-08-05T18:54:31.661Z,0.93
2022-08-05T18:57:01.618Z,0.90
2022-08-05T18:59:42.731Z,0.80
2022-08-05T19:02:26.706Z,1.13
2022-08-05T19:05:01.710Z,1.08
2022-08-05T19:07:45.297Z,1.00
2022-08-05T19:10:13.226Z,0.80
2022-08-05T19:12:40.209Z,1.25
2022-08-05T19:15:10.701Z,1.60
2022-08-05T19:17:59.349Z,0.82
2022-08-05T19:20:36.918Z,1.08
2022-08-05T19:23:07.671Z,0.70
2022-08-05T19:25:39.035Z,0.93
2022-08-05T19:28:08.760Z,1.17
2022-08-05T19:30:35.249Z,0.95
2022-08-05T19:33:01.854Z,0.77
2022-08-05T19:35:55.720Z,1.30
2022-08-05T19:38:24.038Z,1.20
2022-08-05T19:40:53.077Z,1.20
2022-08-05T19:44:04.685Z,0.85
2022-08-05T19:46:06.546Z,0.82
2022-08-05T19:48:44.015Z,0.80
2022-08-05T19:52:04.822Z,1.05
2022-08-05T19:54:05.012Z,1.00
2022-08-05T19:56:34.633Z,0.90
2022-08-05T19:59:21.403Z,0.80
2022-08-05T20:01:48.161Z,0.98
2022-08-05T20:04:14.984Z,1.20
2022-08-05T20:06:46.565Z,1.20
2022-08-05T20:09:13.904Z,1.40
2022-08-05T20:11:40.968Z,1.50
2022-08-05T20:14:19.084Z,1.30
2022-08-05T20:16:53.503Z,1.10
2022-08-05T20:19:21.226Z,1.10
2022-08-05T20:21:49.651Z,1.33
2022-08-05T20:24:16.498Z,0.93
2022-08-05T20:26:43.496Z,0.90
2022-08-05T20:29:26.819Z,1.02
2022-08-05T20:31:58.138Z,1.17
2022-08-05T20:34:26.128Z,0.88
2022-08-05T20:36:52.728Z,1.33
2022-08-05T20:39:19.310Z,1.25
2022-08-05T20:41:47.704Z,1.08
2022-08-05T20:44:19.176Z,1.15
2022-08-05T20:47:00.277Z,1.10
2022-08-05T20:49:26.958Z,1.45
2022-08-05T20:51:54.192Z,0.95
2022-08-05T20:54:21.420Z,1.00
2022-08-05T20:56:48.945Z,1.35
2022-08-05T20:59:19.132Z,1.52
2022-08-05T21:01:53.740Z,1.10
2022-08-05T21:04:27.008Z,1.10
2022-08-05T21:06:57.320Z,1.30
2022-08-05T21:09:26.026Z,1.05
2022-08-05T21:12:09.192Z,1.02
2022-08-05T21:14:38.325Z,1.10
2022-08-05T21:17:05.953Z,1.02
2022-08-05T21:19:47.502Z,1.23
2022-08-05T21:22:17.751Z,1.10
2022-08-05T21:24:45.539Z,1.17
2022-08-05T21:27:16.759Z,1.40
2022-08-05T21:29:48.459Z,1.38
2022-08-05T21:32:20.023Z,1.50
2022-08-05T21:35:08.166Z,1.77
2022-08-05T21:37:35.075Z,1.25
2022-08-05T21:40:13.801Z,1.48
2022-08-05T21:42:44.491Z,1.65
2022-08-05T21:45:14.110Z,1.75
2022-08-05T21:47:55.753Z,1.55
2022-08-05T21:50:23.947Z,1.42
2022-08-05T21:52:50.536Z,2.08
2022-08-05T21:55:42.973Z,1.52
2022-08-05T21:58:10.227Z,1.48
2022-08-05T22:00:38.503Z,1.67
2022-08-05T22:03:07.000Z,1.33
2022-08-05T22:05:49.163Z,1.50
2022-08-05T22:08:22.040Z,1.15
2022-08-05T22:10:53.367Z,1.17
2022-08-05T22:14:06.569Z,1.27
2022-08-05T22:16:26.071Z,1.50
2022-08-05T22:18:58.959Z,1.30
2022-08-05T22:21:27.894Z,1.40
2022-08-05T22:24:40.360Z,1.20
2022-08-05T22:27:18.434Z,1.25
2022-08-05T22:29:45.946Z,1.33
2022-08-05T22:32:17.467Z,1.15
2022-08-05T22:34:44.282Z,1.40
2022-08-05T22:37:12.595Z,1.25
2022-08-05T22:39:39.582Z,1.50
2022-08-05T22:42:12.201Z,1.70
2022-08-05T22:44:47.088Z,1.17
2022-08-05T22:47:28.672Z,1.40
2022-08-05T22:50:22.771Z,1.33
2022-08-05T22:52:46.256Z,1.15
2022-08-05T22:55:19.331Z,1.27
2022-08-05T22:57:47.129Z,1.45
2022-08-05T23:00:18.250Z,1.50
2022-08-05T23:02:48.323Z,1.50
2022-08-05T23:05:15.502Z,1.35
2022-08-05T23:07:45.524Z,1.40
2022-08-05T23:10:19.659Z,1.30
2022-08-05T23:12:47.097Z,1.40
2022-08-05T23:15:13.746Z,1.60
2022-08-05T23:18:01.818Z,1.80
2022-08-05T23:20:30.234Z,1.27
2022-08-05T23:22:58.595Z,1.23
2022-08-05T23:25:50.962Z,1.30
2022-08-05T23:28:12.715Z,1.20
2022-08-05T23:30:53.751Z,1.17
2022-08-05T23:34:02.897Z,1.55
2022-08-05T23:36:10.043Z,1.40
2022-08-05T23:38:37.146Z,1.13
2022-08-05T23:41:03.874Z,1.50
2022-08-05T23:44:04.385Z,1.40
2022-08-05T23:46:19.746Z,1.52
2022-08-05T23:49:00.325Z,1.50
2022-08-05T23:51:52.417Z,1.60
2022-08-05T23:54:25.673Z,1.35
2022-08-05T23:56:52.960Z,1.20
2022-08-05T23:59:20.511Z,1.52
